Time;durP1;ratioP1;P1;durP2;ratioP2;P2;SDS_P1;SDS_P2;PMS_P1;PMS_P2;Temp;Humidity;BMP_temperature;BMP_pressure;BME280_temperature;BME280_humidity;BME280_pressure;Samples;Min_cycle;Max_cycle;Signal;HPM_P1;HPM_P2
2023/08/25 00:01:16;;;;;;;5.35;2.85;;;22.20;92.30;;;;;;6127441;23;20013;-78
2023/08/25 00:03:41;;;;;;;4.60;2.90;;;22.20;92.20;;;;;;6127075;23;20025;-79
2023/08/25 00:06:07;;;;;;;4.68;2.72;;;22.20;92.30;;;;;;6127339;23;20069;-78
2023/08/25 00:08:33;;;;;;;6.60;3.30;;;22.20;92.30;;;;;;6101269;23;20010;-78
2023/08/25 00:10:58;;;;;;;4.65;2.78;;;22.20;92.30;;;;;;6127382;23;20002;-78
2023/08/25 00:13:24;;;;;;;5.05;3.17;;;22.20;92.30;;;;;;6101375;23;20009;-78
2023/08/25 00:15:50;;;;;;;5.05;2.72;;;22.20;92.30;;;;;;6101507;23;20333;-78
2023/08/25 00:18:16;;;;;;;5.25;2.88;;;22.30;92.30;;;;;;6101410;23;20006;-78
2023/08/25 00:20:41;;;;;;;4.85;2.80;;;22.30;92.20;;;;;;6127098;23;20006;-79
2023/08/25 00:23:07;;;;;;;5.78;2.88;;;22.30;92.20;;;;;;6101410;23;20037;-79
2023/08/25 00:25:33;;;;;;;5.70;2.90;;;22.30;92.10;;;;;;6133606;23;20002;-80
2023/08/25 00:27:59;;;;;;;4.88;2.78;;;22.30;92.10;;;;;;6107042;23;20010;-79
2023/08/25 00:30:26;;;;;;;5.35;2.88;;;22.30;92.10;;;;;;6133999;23;20024;-80
2023/08/25 00:32:51;;;;;;;4.07;2.53;;;22.30;92.10;;;;;;6107041;23;20089;-78
2023/08/25 00:35:17;;;;;;;5.22;2.90;;;22.30;92.10;;;;;;6132244;23;20010;-80
2023/08/25 00:37:42;;;;;;;5.15;2.65;;;22.30;92.10;;;;;;6105944;23;20002;-79
2023/08/25 00:40:10;;;;;;;5.35;3.00;;;22.30;92.10;;;;;;6105965;23;20353;-79
2023/08/25 00:42:35;;;;;;;5.32;3.15;;;22.30;92.10;;;;;;6131941;23;20009;-80
2023/08/25 00:45:01;;;;;;;5.53;2.80;;;22.30;92.10;;;;;;6106087;23;20013;-79
2023/08/25 00:47:26;;;;;;;5.75;3.00;;;22.20;92.10;;;;;;6132631;23;20038;-80
2023/08/25 00:49:53;;;;;;;5.18;2.90;;;22.20;92.10;;;;;;6131241;23;20030;-80
2023/08/25 00:52:20;;;;;;;4.70;2.70;;;22.20;92.10;;;;;;6132290;23;20446;-80
2023/08/25 00:54:49;;;;;;;4.10;2.60;;;22.20;92.20;;;;;;6105400;23;20002;-80
2023/08/25 00:57:15;;;;;;;5.20;2.65;;;22.20;92.20;;;;;;6131973;23;20496;-79
2023/08/25 00:59:41;;;;;;;5.43;2.70;;;22.20;92.20;;;;;;6132187;23;20006;-79
2023/08/25 01:02:08;;;;;;;4.63;2.90;;;22.20;92.20;;;;;;6131267;23;20068;-79
2023/08/25 01:04:34;;;;;;;4.53;2.75;;;22.20;92.20;;;;;;6104759;23;20006;-80
2023/08/25 01:07:00;;;;;;;4.97;2.60;;;22.20;92.20;;;;;;6131158;23;20013;-80
2023/08/25 01:09:25;;;;;;;4.80;2.70;;;22.20;92.20;;;;;;6105909;23;20006;-79
2023/08/25 01:12:04;;;;;;;3.75;2.42;;;22.20;92.20;;;;;;6104931;23;20009;-79
2023/08/25 01:14:58;;;;;;;3.78;2.28;;;22.20;92.20;;;;;;6104611;23;19998;-79
2023/08/25 01:17:45;;;;;;;4.35;2.47;;;22.10;92.20;;;;;;6104385;23;20002;-79
2023/08/25 01:20:14;;;;;;;5.22;2.67;;;22.10;92.20;;;;;;6104004;23;20005;-79
2023/08/25 01:23:13;;;;;;;4.35;2.75;;;22.10;92.20;;;;;;6103847;23;20009;-79
2023/08/25 01:25:40;;;;;;;4.63;2.65;;;22.10;92.20;;;;;;6103140;23;20341;-79
2023/08/25 01:28:06;;;;;;;5.70;2.78;;;22.10;92.20;;;;;;6103337;23;20012;-79
2023/08/25 01:30:34;;;;;;;4.57;2.53;;;22.10;92.20;;;;;;6129254;23;19998;-79
2023/08/25 01:33:00;;;;;;;3.90;2.30;;;22.10;92.20;;;;;;6128698;23;20010;-79
2023/08/25 01:35:58;;;;;;;4.60;2.55;;;22.20;92.20;;;;;;6110562;23;20095;-79
2023/08/25 01:38:30;;;;;;;4.93;2.63;;;22.10;92.20;;;;;;6129150;23;20016;-78
2023/08/25 01:41:17;;;;;;;4.05;2.47;;;22.20;92.20;;;;;;6129420;23;20494;-78
2023/08/25 01:43:51;;;;;;;4.28;2.70;;;22.20;92.20;;;;;;6128837;23;20006;-79
2023/08/25 01:46:18;;;;;;;4.60;2.55;;;22.20;92.20;;;;;;6127449;23;20389;-79
2023/08/25 01:48:47;;;;;;;4.07;2.40;;;22.20;92.10;;;;;;6127929;23;20436;-78
2023/08/25 01:51:13;;;;;;;4.35;2.55;;;22.20;92.10;;;;;;6128145;23;20504;-78
2023/08/25 01:53:41;;;;;;;4.53;2.67;;;22.20;92.10;;;;;;6127433;23;19998;-79
2023/08/25 01:56:06;;;;;;;3.95;2.22;;;22.30;92.10;;;;;;6128390;23;20006;-78
2023/08/25 01:58:32;;;;;;;3.22;2.30;;;22.20;92.00;;;;;;6128499;23;20061;-79
2023/08/25 02:00:57;;;;;;;4.63;2.60;;;22.30;92.00;;;;;;6128028;23;20508;-79
2023/08/25 02:03:23;;;;;;;4.10;2.28;;;22.30;92.00;;;;;;6126196;23;20034;-78
2023/08/25 02:05:48;;;;;;;4.82;2.70;;;22.30;92.00;;;;;;6124960;23;20088;-79
2023/08/25 02:08:14;;;;;;;4.03;2.33;;;22.20;92.00;;;;;;6126942;23;20080;-78
2023/08/25 02:10:39;;;;;;;4.82;2.70;;;22.30;92.00;;;;;;6125874;23;20002;-79
2023/08/25 02:13:05;;;;;;;4.90;2.60;;;22.30;92.00;;;;;;6127351;23;20073;-78
2023/08/25 02:15:30;;;;;;;4.47;2.65;;;22.20;92.00;;;;;;6125809;23;20056;-79
2023/08/25 02:17:56;;;;;;;4.38;2.55;;;22.20;92.10;;;;;;6125998;23;20036;-78
2023/08/25 02:20:22;;;;;;;5.55;3.00;;;22.20;92.10;;;;;;6126938;23;20010;-79
2023/08/25 02:22:47;;;;;;;4.07;2.35;;;22.20;92.10;;;;;;6126471;23;20006;-79
2023/08/25 02:25:13;;;;;;;3.90;2.30;;;22.20;92.10;;;;;;6126583;23;19998;-79
2023/08/25 02:27:39;;;;;;;3.92;2.40;;;22.10;92.10;;;;;;6126810;23;20001;-79
2023/08/25 02:30:05;;;;;;;4.07;2.50;;;22.20;92.20;;;;;;6127122;23;20522;-78
2023/08/25 02:32:31;;;;;;;3.55;2.25;;;22.10;92.20;;;;;;6126892;23;20028;-79
2023/08/25 02:34:57;;;;;;;4.13;2.30;;;22.10;92.20;;;;;;6126118;23;20080;-79
2023/08/25 02:37:22;;;;;;;4.72;2.22;;;22.10;92.20;;;;;;6100264;23;20038;-80
2023/08/25 02:39:48;;;;;;;4.47;2.35;;;22.10;92.20;;;;;;6126568;23;20002;-79
2023/08/25 02:42:13;;;;;;;5.68;2.40;;;22.10;92.20;;;;;;6100313;23;20010;-79
2023/08/25 02:44:39;;;;;;;4.93;2.40;;;22.10;92.20;;;;;;6126267;23;20061;-79
2023/08/25 02:47:04;;;;;;;5.18;2.58;;;22.10;92.20;;;;;;6100562;23;20036;-79
2023/08/25 02:49:30;;;;;;;4.68;2.20;;;22.10;92.20;;;;;;6126059;23;20433;-78
2023/08/25 02:51:56;;;;;;;3.75;2.28;;;22.10;92.20;;;;;;6126184;23;20441;-79
2023/08/25 02:54:23;;;;;;;5.40;2.80;;;22.10;92.40;;;;;;6100061;23;20029;-79
2023/08/25 02:56:48;;;;;;;5.13;2.40;;;22.10;92.20;;;;;;6100043;23;20002;-79
2023/08/25 02:59:14;;;;;;;4.80;2.33;;;22.10;92.20;;;;;;6100020;23;20001;-78
2023/08/25 03:01:39;;;;;;;4.68;2.50;;;22.10;92.20;;;;;;6100002;23;20005;-79
2023/08/25 03:04:05;;;;;;;4.63;2.58;;;22.10;92.20;;;;;;6125800;23;20002;-78
2023/08/25 03:06:30;;;;;;;3.35;2.15;;;22.10;92.20;;;;;;6125987;23;20006;-79
2023/08/25 03:08:56;;;;;;;4.07;2.20;;;22.00;92.20;;;;;;6125645;23;20012;-79
2023/08/25 03:11:21;;;;;;;4.10;2.20;;;22.10;92.20;;;;;;6125911;23;20002;-79
2023/08/25 03:13:47;;;;;;;4.18;2.30;;;22.10;92.20;;;;;;6100346;23;20002;-79
2023/08/25 03:16:12;;;;;;;4.43;2.47;;;22.20;92.20;;;;;;6127871;23;20002;-79
2023/08/25 03:18:38;;;;;;;4.05;2.30;;;22.10;92.10;;;;;;6101972;23;20441;-78
2023/08/25 03:21:04;;;;;;;3.92;2.47;;;22.20;92.10;;;;;;6102037;23;20001;-78
2023/08/25 03:23:30;;;;;;;5.72;2.40;;;22.20;92.10;;;;;;6127438;23;20085;-79
2023/08/25 03:25:55;;;;;;;4.75;2.42;;;22.20;92.00;;;;;;6101977;23;20037;-79
2023/08/25 03:28:21;;;;;;;4.05;2.30;;;22.20;92.00;;;;;;6127358;23;20124;-79
2023/08/25 03:30:50;;;;;;;5.18;2.70;;;22.20;92.00;;;;;;6127533;23;20393;-79
2023/08/25 03:33:16;;;;;;;3.40;2.20;;;22.20;92.00;;;;;;6101723;23;20002;-79
2023/08/25 03:35:41;;;;;;;4.93;2.30;;;22.20;92.00;;;;;;6111682;23;20010;-79
2023/08/25 03:38:07;;;;;;;3.88;2.45;;;22.20;92.00;;;;;;6130572;23;20021;-80
2023/08/25 03:40:32;;;;;;;5.20;2.63;;;22.20;92.00;;;;;;6132330;23;19998;-80
2023/08/25 03:42:58;;;;;;;5.40;2.45;;;22.20;92.00;;;;;;6133547;23;20012;-80
2023/08/25 03:45:23;;;;;;;4.75;2.40;;;22.20;92.00;;;;;;6134351;23;20062;-79
2023/08/25 03:47:49;;;;;;;4.22;2.45;;;22.20;92.00;;;;;;6126974;23;20336;-79
2023/08/25 03:50:14;;;;;;;5.28;2.72;;;22.20;92.10;;;;;;6125420;23;20002;-77
2023/08/25 03:52:40;;;;;;;5.22;2.60;;;22.10;92.10;;;;;;6125425;23;20006;-76
2023/08/25 03:55:06;;;;;;;5.20;2.75;;;22.10;92.10;;;;;;6125203;23;20009;-77
2023/08/25 03:57:31;;;;;;;5.13;2.78;;;22.10;92.10;;;;;;6127338;23;20008;-80
2023/08/25 03:59:57;;;;;;;4.60;2.53;;;22.10;92.10;;;;;;6134676;23;20496;-80
2023/08/25 04:02:22;;;;;;;5.57;2.83;;;22.10;92.10;;;;;;6135759;23;20341;-80
2023/08/25 04:04:48;;;;;;;4.72;2.55;;;22.10;92.10;;;;;;6131836;23;20089;-80
2023/08/25 04:07:13;;;;;;;5.28;2.67;;;22.10;92.20;;;;;;6133757;23;20045;-80
2023/08/25 04:09:40;;;;;;;4.40;2.50;;;22.10;92.20;;;;;;6134067;23;20056;-79
2023/08/25 04:12:05;;;;;;;4.97;2.88;;;22.10;92.20;;;;;;6133995;23;20001;-80
2023/08/25 04:14:31;;;;;;;5.07;2.70;;;22.10;92.20;;;;;;6132001;23;20512;-79
2023/08/25 04:16:57;;;;;;;5.38;2.83;;;22.10;92.20;;;;;;6132784;23;20014;-81
2023/08/25 04:19:22;;;;;;;5.68;3.30;;;22.10;92.10;;;;;;6127634;23;20010;-81
2023/08/25 04:21:48;;;;;;;5.75;3.45;;;22.10;92.10;;;;;;6124630;23;20009;-79
2023/08/25 04:24:15;;;;;;;5.45;3.03;;;22.00;92.10;;;;;;6120737;23;20014;-81
2023/08/25 04:26:41;;;;;;;5.72;3.58;;;22.10;92.10;;;;;;6127592;23;20441;-80
2023/08/25 04:29:09;;;;;;;6.55;3.88;;;22.10;92.10;;;;;;6125942;23;20010;-79
2023/08/25 04:31:35;;;;;;;6.53;3.63;;;22.10;92.10;;;;;;6125273;23;20002;-81
2023/08/25 04:34:00;;;;;;;5.88;3.88;;;22.00;92.10;;;;;;6126075;23;20045;-81
2023/08/25 04:36:26;;;;;;;6.47;3.83;;;22.10;92.10;;;;;;6125881;23;20228;-81
2023/08/25 04:38:51;;;;;;;7.20;3.95;;;22.00;92.00;;;;;;6126050;23;20005;-80
2023/08/25 04:41:18;;;;;;;6.03;3.80;;;22.00;92.00;;;;;;6125421;23;20110;-80
2023/08/25 04:43:44;;;;;;;7.25;4.25;;;22.00;92.00;;;;;;6124489;23;20010;-79
2023/08/25 04:46:12;;;;;;;6.90;4.30;;;22.10;92.00;;;;;;6125258;23;20141;-80
2023/08/25 04:48:38;;;;;;;7.30;4.00;;;22.10;92.00;;;;;;6124829;23;20013;-81
2023/08/25 04:51:04;;;;;;;7.35;4.40;;;22.20;92.00;;;;;;6126741;23;20006;-79
2023/08/25 04:53:47;;;;;;;;;;;;;;;;;;;;;
2023/08/25 05:03:29;;;;;;;7.43;5.10;;;22.10;91.90;;;;;;5981416;23;20023;-78
2023/08/25 05:10:03;;;;;;;7.78;5.15;;;22.20;91.80;;;;;;6120984;23;20069;-78
2023/08/25 05:12:41;;;;;;;7.13;4.78;;;22.20;91.80;;;;;;6123451;23;20014;-78
2023/08/25 05:15:19;;;;;;;;;;;;;;;;;;;;;
2023/08/25 05:18:08;;;;;;;9.70;6.20;;;22.20;91.80;;;;;;6123024;23;20078;-79
2023/08/25 05:20:45;;;;;;;9.68;6.53;;;22.20;91.70;;;;;;6120003;23;20479;-78
2023/08/25 05:23:26;;;;;;;8.30;5.90;;;21.10;91.50;;;;;;6123438;23;20049;-78
2023/08/25 05:26:06;;;;;;;10.57;6.78;;;22.20;91.80;;;;;;6123958;23;20001;-79
2023/08/25 05:29:01;;;;;;;9.43;6.90;;;22.00;91.80;;;;;;6121069;23;20017;-79
2023/08/25 05:31:40;;;;;;;9.60;6.55;;;22.10;91.80;;;;;;6122153;23;20006;-78
2023/08/25 05:34:37;;;;;;;10.07;6.87;;;22.00;91.80;;;;;;6122512;23;19998;-77
2023/08/25 05:37:43;;;;;;;10.15;6.90;;;22.10;91.80;;;;;;6123933;23;20230;-79
2023/08/25 05:40:18;;;;;;;9.48;6.47;;;22.10;91.80;;;;;;6123728;23;20405;-80
2023/08/25 05:49:46;;;;;;;;;;;;;;;;;;;;;
2023/08/25 06:04:55;;;;;;;10.35;7.35;;;22.10;91.70;;;;;;6122030;23;20018;-77
2023/08/25 06:22:27;;;;;;;9.88;6.85;;;22.30;91.70;;;;;;5865903;24;20051;-79
2023/08/25 06:25:26;;;;;;;9.68;7.40;;;21.30;91.30;;;;;;5919186;24;20354;-79
2023/08/25 06:34:31;;;;;;;10.80;7.32;;;22.40;91.30;;;;;;5969138;23;20363;-79
2023/08/25 06:37:18;;;;;;;9.38;7.13;;;22.40;91.20;;;;;;6005276;23;20008;-80
2023/08/25 06:40:28;;;;;;;11.68;7.43;;;22.60;91.20;;;;;;6002928;23;20019;-78
2023/08/25 06:42:55;;;;;;;10.02;7.07;;;23.40;91.30;;;;;;6004963;23;20059;-78
2023/08/25 06:45:50;;;;;;;10.90;7.70;;;22.50;91.10;;;;;;6005293;23;20011;-78
2023/08/25 06:48:52;;;;;;;;;;;;;;;;;;;;;
2023/08/25 06:51:24;;;;;;;10.32;7.57;;;22.40;91.00;;;;;;6123187;23;20529;-77
2023/08/25 06:53:49;;;;;;;10.52;7.50;;;22.60;91.10;;;;;;6095933;23;20025;-80
2023/08/25 06:57:03;;;;;;;9.63;6.72;;;23.80;91.40;;;;;;6097963;23;20002;-78
2023/08/25 07:00:11;;;;;;;;;;;;;;;;;;;;;
2023/08/25 07:03:34;;;;;;;;;;;22.60;91.10;;;;;;6124544;23;20080;-77
2023/08/25 07:09:40;;;;;;;9.88;7.30;;;22.50;91.10;;;;;;6124276;23;20029;-80
2023/08/25 07:12:24;;;;;;;10.55;7.53;;;22.40;91.10;;;;;;6124369;23;20010;-79
2023/08/25 07:15:03;;;;;;;10.27;7.10;;;22.50;91.00;;;;;;6122182;23;20013;-78
2023/08/25 07:17:56;;;;;;;9.90;7.32;;;22.40;91.00;;;;;;6123435;23;20006;-79
2023/08/25 07:20:33;;;;;;;9.82;7.18;;;22.50;91.00;;;;;;6122992;23;20009;-79
2023/08/25 07:23:12;;;;;;;11.75;7.88;;;23.80;91.40;;;;;;6123012;23;20014;-79
2023/08/25 07:26:00;;;;;;;;;;;;;;;;;;;;;
2023/08/25 07:28:40;;;;;;;9.48;6.97;;;22.70;91.10;;;;;;6122906;23;20081;-78
2023/08/25 07:31:16;;;;;;;9.52;7.13;;;22.60;91.00;;;;;;6121389;23;20002;-78
2023/08/25 07:34:25;;;;;;;9.38;6.80;;;23.50;91.10;;;;;;6122971;23;20015;-78
2023/08/25 07:40:42;;;;;;;11.38;7.18;;;22.60;90.90;;;;;;6123745;23;20016;-78
2023/08/25 07:43:43;;;;;;;10.38;7.72;;;22.70;90.90;;;;;;6122787;23;20005;-78
2023/08/25 07:50:18;;;;;;;10.45;7.75;;;22.70;90.80;;;;;;6089199;23;20018;-78
2023/08/25 07:53:20;;;;;;;10.55;7.13;;;22.70;90.90;;;;;;6058817;23;20449;-78
2023/08/25 07:56:22;;;;;;;;;;;;;;;;;;;;;
2023/08/25 07:59:44;;;;;;;;;;;;;;;;;;;;;
2023/08/25 08:02:28;;;;;;;11.32;7.25;;;22.80;90.60;;;;;;6155421;23;20088;-79
2023/08/25 08:05:38;;;;;;;9.52;7.10;;;23.30;90.60;;;;;;6126660;23;20090;-78
2023/08/25 08:11:42;;;;;;;;;;;;;;;;;;;;;
2023/08/25 08:22:25;;;;;;;;;;;;;;;;;;;;;
2023/08/25 08:25:17;;;;;;;10.77;7.25;;;22.90;90.70;;;;;;6155665;23;20061;-79
2023/08/25 08:27:57;;;;;;;9.82;7.00;;;22.80;90.80;;;;;;6109903;23;20092;-79
2023/08/25 08:30:58;;;;;;;;;;;;;;;;;;;;;
2023/08/25 08:39:48;;;;;;;9.57;7.18;;;23.20;91.30;;;;;;6143929;23;20384;-78
2023/08/25 08:42:43;;;;;;;9.50;7.25;;;22.50;91.10;;;;;;6129244;23;20009;-78
2023/08/25 08:45:17;;;;;;;8.95;6.93;;;23.40;91.70;;;;;;6127806;23;20326;-78
2023/08/25 08:47:49;;;;;;;8.43;6.68;;;22.60;91.30;;;;;;6128561;23;20033;-79
2023/08/25 08:50:17;;;;;;;9.85;7.00;;;22.90;91.30;;;;;;6128087;23;20096;-79
2023/08/25 08:53:14;;;;;;;9.13;6.97;;;22.50;91.30;;;;;;6128323;23;20009;-78
2023/08/25 08:55:51;;;;;;;10.02;6.97;;;22.50;91.40;;;;;;6127794;23;20018;-78
2023/08/25 08:58:27;;;;;;;9.55;7.30;;;22.60;91.40;;;;;;6128034;23;20037;-77
2023/08/25 09:00:56;;;;;;;9.50;7.35;;;22.50;91.40;;;;;;6127621;23;20132;-78
2023/08/25 09:04:10;;;;;;;9.18;7.15;;;23.20;91.60;;;;;;6127676;23;20013;-79
2023/08/25 09:06:59;;;;;;;9.18;7.10;;;22.50;91.50;;;;;;6117805;23;20443;-77
2023/08/25 09:09:27;;;;;;;12.23;6.88;;;22.40;91.50;;;;;;6125731;23;20021;-78
2023/08/25 09:15:49;;;;;;;8.90;6.68;;;22.40;91.60;;;;;;6153048;23;20456;-79
2023/08/25 09:18:20;;;;;;;10.85;6.75;;;22.40;91.60;;;;;;6154603;23;20009;-80
2023/08/25 09:20:56;;;;;;;8.75;6.60;;;23.10;91.80;;;;;;6128801;23;20009;-78
2023/08/25 09:24:21;;;;;;;8.93;6.70;;;22.60;91.70;;;;;;6155877;23;20044;-79
2023/08/25 09:43:13;;;;;;;;;;;;;;;;;;;;;
2023/08/25 09:55:23;;;;;;;8.65;6.35;;;22.40;91.60;;;;;;6117809;23;20026;-80
2023/08/25 09:57:49;;;;;;;9.15;6.68;;;22.20;91.60;;;;;;6124900;23;20463;-80
2023/08/25 10:00:15;;;;;;;9.13;6.30;;;22.40;91.70;;;;;;6131938;23;20033;-79
2023/08/25 10:02:41;;;;;;;8.48;6.40;;;22.40;91.80;;;;;;6127794;23;20012;-79
2023/08/25 10:05:10;;;;;;;8.88;6.57;;;22.40;91.80;;;;;;6096165;23;20013;-80
2023/08/25 10:07:35;;;;;;;9.77;6.60;;;22.40;91.90;;;;;;6096383;23;20018;-80
2023/08/25 10:10:01;;;;;;;8.90;6.20;;;22.30;91.90;;;;;;6098374;23;20006;-80
2023/08/25 10:12:27;;;;;;;8.88;6.47;;;22.30;92.00;;;;;;6105314;23;19998;-81
2023/08/25 10:14:56;;;;;;;9.95;7.65;;;22.30;92.10;;;;;;6099259;23;20006;-81
2023/08/25 10:17:24;;;;;;;9.57;6.82;;;22.30;92.10;;;;;;6097612;23;20012;-81
2023/08/25 10:19:55;;;;;;;9.30;6.35;;;22.30;92.10;;;;;;6097003;23;20355;-80
2023/08/25 10:22:24;;;;;;;9.15;6.80;;;22.30;92.20;;;;;;6098415;23;20404;-80
2023/08/25 10:24:52;;;;;;;10.38;7.10;;;22.30;92.20;;;;;;6095459;23;20017;-81
2023/08/25 10:27:19;;;;;;;10.15;7.10;;;22.30;92.30;;;;;;6095932;23;20458;-79
2023/08/25 10:29:44;;;;;;;11.10;7.25;;;22.30;92.30;;;;;;6097065;23;20007;-79
2023/08/25 10:32:10;;;;;;;9.88;7.13;;;22.30;92.30;;;;;;6095700;23;20484;-80
2023/08/25 10:34:41;;;;;;;10.88;6.97;;;22.30;92.30;;;;;;6097068;23;20006;-79
2023/08/25 10:37:10;;;;;;;10.30;6.95;;;22.30;92.30;;;;;;6095652;23;20030;-80
2023/08/25 10:39:52;;;;;;;10.00;6.93;;;22.30;92.30;;;;;;6097378;23;20058;-80
2023/08/25 10:42:27;;;;;;;8.88;6.70;;;22.30;92.30;;;;;;6095827;23;20114;-80
2023/08/25 10:44:57;;;;;;;11.13;6.80;;;22.30;92.30;;;;;;6095599;23;20007;-80
2023/08/25 10:47:23;;;;;;;8.73;6.38;;;22.30;92.30;;;;;;6095972;23;20065;-80
2023/08/25 10:49:58;;;;;;;9.15;6.60;;;22.20;92.30;;;;;;6095643;23;20037;-80
2023/08/25 10:52:24;;;;;;;9.70;6.57;;;22.30;92.30;;;;;;6097746;23;20003;-79
2023/08/25 10:54:52;;;;;;;8.82;6.22;;;22.20;92.30;;;;;;6094792;23;20446;-80
2023/08/25 10:57:18;;;;;;;8.77;6.45;;;22.30;92.40;;;;;;6095237;23;20010;-80
2023/08/25 10:59:50;;;;;;;9.25;6.40;;;22.30;92.40;;;;;;6095000;23;20496;-80
2023/08/25 11:02:36;;;;;;;8.63;6.28;;;22.30;92.40;;;;;;6095365;23;20032;-80
2023/08/25 11:05:26;;;;;;;8.60;5.78;;;22.30;92.20;;;;;;6095062;23;20030;-80
2023/08/25 11:07:53;;;;;;;9.45;6.05;;;22.30;92.10;;;;;;6096684;23;20345;-80
2023/08/25 11:10:22;;;;;;;8.73;6.63;;;22.30;92.10;;;;;;6094971;23;20437;-79
2023/08/25 11:12:53;;;;;;;7.88;5.65;;;22.30;92.00;;;;;;6095059;23;20007;-79
2023/08/25 11:15:19;;;;;;;8.35;5.97;;;22.30;92.00;;;;;;6096683;23;20009;-80
2023/08/25 11:17:48;;;;;;;8.52;5.90;;;22.30;92.00;;;;;;6095255;23;20330;-80
2023/08/25 11:20:15;;;;;;;7.95;5.40;;;22.40;92.00;;;;;;6095195;23;20081;-79
2023/08/25 11:22:58;;;;;;;7.93;5.72;;;22.40;92.00;;;;;;6095012;23;20346;-79
2023/08/25 11:25:25;;;;;;;7.78;5.22;;;22.40;91.90;;;;;;6094717;23;20456;-80
2023/08/25 11:27:55;;;;;;;8.10;5.45;;;22.40;91.90;;;;;;6095158;23;20010;-79
2023/08/25 11:30:21;;;;;;;8.35;5.40;;;22.40;91.90;;;;;;6094993;23;20017;-80
2023/08/25 11:32:47;;;;;;;8.40;5.60;;;22.40;92.00;;;;;;6095076;23;20010;-79
2023/08/25 11:35:13;;;;;;;8.20;5.60;;;22.40;92.00;;;;;;6097882;23;20012;-79
2023/08/25 11:37:39;;;;;;;8.50;5.43;;;22.30;92.00;;;;;;6098474;23;20077;-80
2023/08/25 11:40:12;;;;;;;6.88;5.03;;;22.30;92.10;;;;;;6098516;23;20002;-80
2023/08/25 11:42:39;;;;;;;8.70;5.13;;;22.30;92.20;;;;;;6098474;23;20010;-80
2023/08/25 11:45:08;;;;;;;7.60;5.00;;;22.30;92.20;;;;;;6096505;23;20319;-79
2023/08/25 11:47:34;;;;;;;6.60;4.55;;;22.30;92.30;;;;;;6098398;23;20081;-79
2023/08/25 11:50:00;;;;;;;7.97;5.20;;;22.20;92.30;;;;;;6098378;23;20409;-79
2023/08/25 11:52:26;;;;;;;7.90;5.00;;;22.30;92.30;;;;;;6097116;23;20010;-79
2023/08/25 11:54:52;;;;;;;7.40;4.88;;;22.20;92.30;;;;;;6096281;23;20089;-80
2023/08/25 11:57:18;;;;;;;8.00;5.22;;;22.20;92.40;;;;;;6096850;23;20010;-79
2023/08/25 11:59:48;;;;;;;8.25;4.93;;;22.20;92.40;;;;;;6096809;23;20006;-80
2023/08/25 12:02:19;;;;;;;8.75;5.22;;;22.20;92.40;;;;;;6096735;23;20013;-80
2023/08/25 12:04:55;;;;;;;8.40;5.38;;;22.20;92.40;;;;;;6096520;23;20081;-79
2023/08/25 12:07:26;;;;;;;7.13;4.95;;;22.20;92.40;;;;;;6096639;23;20006;-79
2023/08/25 12:09:56;;;;;;;7.75;4.88;;;22.20;92.40;;;;;;6098284;23;20025;-80
2023/08/25 12:12:23;;;;;;;8.15;4.70;;;22.20;92.40;;;;;;6098310;23;20039;-79
2023/08/25 12:14:53;;;;;;;7.72;5.20;;;22.20;92.40;;;;;;6096149;23;20030;-80
2023/08/25 12:17:25;;;;;;;6.95;4.78;;;22.20;92.40;;;;;;6096582;23;20010;-80
2023/08/25 12:19:50;;;;;;;7.63;4.78;;;22.20;92.50;;;;;;6097997;23;20341;-79
2023/08/25 12:22:16;;;;;;;7.60;4.80;;;22.20;92.50;;;;;;6096505;23;20006;-80
2023/08/25 12:24:45;;;;;;;7.28;4.80;;;22.20;92.50;;;;;;6097849;23;19999;-80
2023/08/25 12:27:11;;;;;;;6.90;4.60;;;22.20;92.50;;;;;;6096500;23;20013;-80
2023/08/25 12:29:36;;;;;;;7.25;4.75;;;22.20;92.50;;;;;;6096326;23;20085;-80
2023/08/25 12:32:04;;;;;;;8.60;5.05;;;22.20;92.50;;;;;;6096611;23;20010;-80
2023/08/25 12:34:30;;;;;;;6.45;4.35;;;22.20;92.50;;;;;;6099363;23;20009;-79
2023/08/25 12:36:56;;;;;;;6.22;4.20;;;22.20;92.40;;;;;;6096773;23;20354;-79
2023/08/25 12:39:22;;;;;;;7.05;4.63;;;22.20;92.40;;;;;;6096410;23;20017;-80
2023/08/25 12:41:47;;;;;;;6.07;3.85;;;22.30;92.40;;;;;;6096382;23;20014;-79
2023/08/25 12:44:13;;;;;;;6.72;4.05;;;22.30;92.30;;;;;;6096029;23;20341;-79
2023/08/25 12:46:38;;;;;;;6.65;4.22;;;22.30;92.30;;;;;;6097682;23;20006;-79
2023/08/25 12:49:04;;;;;;;6.50;4.32;;;22.30;92.20;;;;;;6097647;23;20007;-79
2023/08/25 12:51:30;;;;;;;7.18;4.45;;;22.30;92.20;;;;;;6096398;23;20446;-80
2023/08/25 12:53:56;;;;;;;6.30;3.95;;;22.30;92.20;;;;;;6097615;23;20438;-80
2023/08/25 12:56:25;;;;;;;6.18;4.00;;;22.30;92.20;;;;;;6097509;23;20010;-79
2023/08/25 12:58:54;;;;;;;6.68;4.13;;;22.30;92.10;;;;;;6096175;23;20006;-80
2023/08/25 13:01:20;;;;;;;6.20;4.18;;;22.40;92.10;;;;;;6096578;23;20081;-80
2023/08/25 13:03:45;;;;;;;5.63;3.80;;;22.30;92.10;;;;;;6095760;23;20038;-79
2023/08/25 13:06:11;;;;;;;6.05;3.63;;;22.30;92.10;;;;;;6098087;23;20014;-80
2023/08/25 13:08:36;;;;;;;6.13;3.85;;;22.30;92.10;;;;;;6096030;23;20030;-80
2023/08/25 13:11:02;;;;;;;6.07;3.70;;;22.40;92.10;;;;;;6096115;23;20057;-80
2023/08/25 13:13:28;;;;;;;5.70;3.78;;;22.30;92.10;;;;;;6097373;23;20003;-79
2023/08/25 13:15:54;;;;;;;6.00;3.53;;;22.30;92.20;;;;;;6095475;23;20029;-80
2023/08/25 13:18:20;;;;;;;6.00;3.75;;;22.30;92.20;;;;;;6096176;23;20002;-80
2023/08/25 13:20:45;;;;;;;5.88;3.58;;;22.30;92.20;;;;;;6095241;23;20009;-80
2023/08/25 13:23:10;;;;;;;6.20;4.15;;;22.30;92.20;;;;;;6096313;23;20345;-80
2023/08/25 13:25:36;;;;;;;6.95;4.07;;;22.30;92.30;;;;;;6097182;23;20002;-79
2023/08/25 13:28:01;;;;;;;5.60;3.65;;;22.30;92.30;;;;;;6097634;23;19999;-79
2023/08/25 13:30:27;;;;;;;5.95;3.60;;;22.30;92.30;;;;;;6096624;23;20066;-80
2023/08/25 13:32:53;;;;;;;6.32;3.60;;;22.30;92.30;;;;;;6096487;23;20390;-79
2023/08/25 13:35:18;;;;;;;6.18;3.58;;;22.30;92.30;;;;;;6096070;23;20006;-80
2023/08/25 13:37:44;;;;;;;6.30;3.40;;;22.30;92.30;;;;;;6097816;23;20002;-80
2023/08/25 13:40:10;;;;;;;5.25;3.33;;;22.30;92.30;;;;;;6096079;23;20053;-79
2023/08/25 13:42:36;;;;;;;6.00;3.40;;;22.30;92.30;;;;;;6097533;23;20003;-79
2023/08/25 13:45:03;;;;;;;5.47;3.40;;;22.30;92.30;;;;;;6095714;23;20010;-79
2023/08/25 13:47:29;;;;;;;5.22;3.33;;;22.30;92.30;;;;;;6096021;23;20061;-80
2023/08/25 13:49:54;;;;;;;6.25;3.70;;;22.30;92.30;;;;;;6095784;23;20011;-79
2023/08/25 13:52:20;;;;;;;6.25;3.33;;;22.30;92.30;;;;;;6095825;23;20042;-79
2023/08/25 13:54:46;;;;;;;5.70;3.47;;;22.30;92.30;;;;;;6095300;23;20093;-79
2023/08/25 13:57:12;;;;;;;5.18;3.40;;;22.30;92.30;;;;;;6099026;23;19998;-80
2023/08/25 13:59:38;;;;;;;6.18;3.15;;;22.30;92.20;;;;;;6098858;23;20010;-81
2023/08/25 14:02:05;;;;;;;5.35;3.15;;;22.30;92.20;;;;;;6096179;23;20010;-79
2023/08/25 14:04:31;;;;;;;5.10;3.13;;;22.30;92.30;;;;;;6097424;23;20082;-81
2023/08/25 14:06:56;;;;;;;5.22;3.10;;;22.30;92.30;;;;;;6100163;23;20007;-80
2023/08/25 14:09:22;;;;;;;5.25;3.10;;;22.30;92.30;;;;;;6097116;23;20441;-80
2023/08/25 14:11:47;;;;;;;4.57;2.90;;;22.30;92.30;;;;;;6096186;23;20339;-79
2023/08/25 14:14:13;;;;;;;4.70;2.90;;;22.30;92.30;;;;;;6096052;23;20110;-79
2023/08/25 14:16:39;;;;;;;6.07;2.90;;;22.40;92.30;;;;;;6096751;23;20009;-79
2023/08/25 14:19:06;;;;;;;6.30;3.33;;;22.40;92.20;;;;;;6097980;23;20013;-81
2023/08/25 14:21:32;;;;;;;4.93;2.83;;;22.40;92.20;;;;;;6097749;23;20002;-78
2023/08/25 14:23:57;;;;;;;5.97;3.20;;;22.40;92.10;;;;;;6097881;23;20010;-79
2023/08/25 14:26:23;;;;;;;4.88;3.00;;;22.40;92.10;;;;;;6096250;23;20006;-80
2023/08/25 14:28:48;;;;;;;5.20;2.83;;;22.40;92.00;;;;;;6096056;23;20006;-79
2023/08/25 14:31:14;;;;;;;5.60;2.80;;;22.40;92.00;;;;;;6096186;23;20003;-79
2023/08/25 14:33:39;;;;;;;4.70;2.80;;;22.50;92.00;;;;;;6095702;23;20026;-79
2023/08/25 14:36:05;;;;;;;5.53;2.78;;;22.40;92.00;;;;;;6096732;23;20006;-79
2023/08/25 14:38:30;;;;;;;4.32;2.42;;;22.40;92.00;;;;;;6098321;23;20033;-79
2023/08/25 14:40:56;;;;;;;5.20;3.08;;;22.40;92.00;;;;;;6098389;23;19995;-79
2023/08/25 14:43:22;;;;;;;4.95;2.80;;;22.40;92.00;;;;;;6098541;23;20056;-80
2023/08/25 14:45:48;;;;;;;5.15;2.88;;;22.40;92.00;;;;;;6098181;23;20462;-80
2023/08/25 14:48:14;;;;;;;6.43;2.95;;;22.50;92.10;;;;;;6102055;23;19999;-79
2023/08/25 14:50:40;;;;;;;5.00;2.80;;;22.40;92.10;;;;;;6096064;23;20014;-79
2023/08/25 14:53:05;;;;;;;5.00;2.80;;;22.40;92.10;;;;;;6097728;23;20074;-79
2023/08/25 14:55:34;;;;;;;5.28;2.90;;;22.40;92.10;;;;;;6095195;23;20085;-78
2023/08/25 14:57:59;;;;;;;5.20;2.70;;;22.40;92.20;;;;;;6097495;23;20010;-78
2023/08/25 15:00:25;;;;;;;6.32;2.80;;;22.40;92.20;;;;;;6097227;23;20077;-78
2023/08/25 15:02:50;;;;;;;5.28;2.42;;;22.40;92.30;;;;;;6097221;23;20003;-77
2023/08/25 15:05:16;;;;;;;5.93;3.25;;;22.40;92.40;;;;;;6095566;23;20011;-77
2023/08/25 15:07:41;;;;;;;5.72;2.88;;;22.40;92.40;;;;;;6097332;23;20058;-78
2023/08/25 15:10:07;;;;;;;4.40;2.53;;;22.20;92.40;;;;;;6096913;23;20030;-78
2023/08/25 15:12:33;;;;;;;4.18;2.40;;;22.30;92.40;;;;;;6095522;23;20002;-77